Golden, CO (80401)

7:53 PM MST on February 22, 2017 (GMT -0700)
Heritage Dells/Shelton Elementary | | Change Station

Elev 6138 ft 39.72 °N, 105.21 °W | Updated 11 seconds ago

Partly Cloudy
Partly Cloudy
42.1 °F
Feels Like 42 °F
N
1.8
Wind Variable Wind from NNW
Gusts 2.5 mph

Today
High -- | Low -- °F
--% Chance of Precip.
Yesterday
High -- | Low -- °F
Precip. -- in
Pressure 29.79 in
Visibility 30.0 miles
Clouds Mostly Cloudy 8000 ft
Windchill 42 °F
Dew Point 21 °F
Humidity 42%
Rainfall 0.00 in
Snow Depth Not available.
6:43 AM 5:45 PM
Waning Crescent, 13% visible
METAR KBJC 230145Z 02010KT 30SM BKN080 08/M06 A2979
Pressure 29.79 in
Visibility 30.0 miles
Clouds Mostly Cloudy 8000 ft
Windchill 42 °F
Dew Point 21 °F
Humidity 42%
Rainfall 0.00 in
Snow Depth Not available.
6:43 AM 5:45 PM
Waning Crescent, 13% visible
METAR KBJC 230145Z 02010KT 30SM BKN080 08/M06 A2979

Get Your Daily Forecast Email!

Thanks for signing up!

Be on the lookout for a verification email in your inbox.

You'll start receiving the daily forecast at 8 AM.

×

10-Day Weather Forecast

Almanac

Astronomy

Feb. 22, 2017 Rise Set
Actual Time
Civil Twilight
Nautical Twilight
Astronomical Twilight
Moon
Length of Visible Light
Length of Day
Tomorrow will be .
, % of the Moon is Illuminated

Today's Extremes

State Highs State Lows

Community

WunderPhotos

Upload Photos

1,962,540 photos uploaded!

WunderBlog® & News

Nearby

Air Quality

  Air Quality AQ Index Pollutant
Not available.

Snow Depth

Station Depth Elevation

Earthquake Activity

City Distance Mag. Time & Date
Minimum magnitude displayed is 2.5.

Coastal Water Temperatures

Place Temperature

Stations

Nearby Weather Stations

Station Location Temp. Windchill Dew Point Humidity Wind Precip. Elev Updated Type
                   

Watches & Warnings

There are currently no watches in effect.